Time;durP1;ratioP1;P1;durP2;ratioP2;P2;SDS_P1;SDS_P2;PMS_P1;PMS_P2;Temp;Humidity;BMP_temperature;BMP_pressure;BME280_temperature;BME280_humidity;BME280_pressure;Samples;Min_cycle;Max_cycle;Signal;HPM_P1;HPM_P2
2023/05/21 00:01:19;;;;;;;7.53;4.80;;;;;;;;;;5038818;28;20038;-75
2023/05/21 00:03:45;;;;;;;8.48;4.60;;;;;;;;;;5039132;28;20038;-75
2023/05/21 00:06:14;;;;;;;7.75;5.10;;;;;;;;;;5034478;28;20356;-75
2023/05/21 00:08:40;;;;;;;7.25;5.25;;;;;;;;;;5036168;28;20095;-75
2023/05/21 00:11:06;;;;;;;6.53;4.82;;;;;;;;;;5054400;28;20076;-75
2023/05/21 00:13:33;;;;;;;6.43;5.03;;;;;;;;;;5054050;28;20051;-75
2023/05/21 00:15:59;;;;;;;9.25;5.03;;;;;;;;;;5019559;28;20053;-75
2023/05/21 00:18:25;;;;;;;7.65;5.28;;;;;;;;;;5047860;28;20037;-75
2023/05/21 00:20:51;;;;;;;8.48;5.30;;;;;;;;;;5036838;28;20061;-75
2023/05/21 00:23:18;;;;;;;6.20;5.30;;;;;;;;;;5052567;28;20041;-75
2023/05/21 00:25:45;;;;;;;8.98;6.22;;;;;;;;;;5033894;28;20056;-75
2023/05/21 00:28:11;;;;;;;7.63;5.75;;;;;;;;;;5034262;28;20055;-75
2023/05/21 00:30:38;;;;;;;7.93;5.30;;;;;;;;;;5035408;28;20041;-75
2023/05/21 00:33:04;;;;;;;7.90;5.97;;;;;;;;;;5034346;28;20045;-75
2023/05/21 00:35:30;;;;;;;8.88;5.75;;;;;;;;;;5019854;28;20037;-75
2023/05/21 00:37:56;;;;;;;7.15;5.63;;;;;;;;;;5028018;28;20160;-75
2023/05/21 00:40:22;;;;;;;8.25;5.95;;;;;;;;;;5034066;28;20421;-75
2023/05/21 00:42:48;;;;;;;8.13;5.97;;;;;;;;;;5050598;28;20468;-75
2023/05/21 00:45:14;;;;;;;9.27;6.10;;;;;;;;;;5052504;28;20048;-75
2023/05/21 00:47:41;;;;;;;7.95;6.20;;;;;;;;;;5054051;28;20041;-75
2023/05/21 00:50:07;;;;;;;8.55;6.40;;;;;;;;;;5052651;28;20101;-75
2023/05/21 00:52:40;;;;;;;9.52;5.97;;;;;;;;;;5033881;28;20120;-76
2023/05/21 00:55:07;;;;;;;7.80;5.82;;;;;;;;;;5038912;28;20487;-75
2023/05/21 00:57:35;;;;;;;8.60;6.57;;;;;;;;;;5053892;28;20099;-75
2023/05/21 01:00:03;;;;;;;8.32;6.20;;;;;;;;;;5038526;28;20077;-75
2023/05/21 01:02:33;;;;;;;10.55;6.97;;;;;;;;;;5035658;28;20057;-75
2023/05/21 01:04:59;;;;;;;9.43;6.95;;;;;;;;;;5044674;28;20511;-75
2023/05/21 01:07:26;;;;;;;10.40;6.65;;;;;;;;;;5025787;28;20120;-75
2023/05/21 01:09:53;;;;;;;10.13;7.13;;;;;;;;;;5034361;28;20076;-75
2023/05/21 01:12:20;;;;;;;10.38;7.97;;;;;;;;;;5053340;28;20064;-75
2023/05/21 01:14:46;;;;;;;11.25;7.50;;;;;;;;;;5052395;28;20125;-75
2023/05/21 01:17:13;;;;;;;10.23;7.22;;;;;;;;;;5053121;28;20036;-75
2023/05/21 01:19:39;;;;;;;11.25;7.20;;;;;;;;;;5053227;28;20124;-75
2023/05/21 01:22:06;;;;;;;11.35;7.90;;;;;;;;;;5030008;28;20053;-75
2023/05/21 01:24:32;;;;;;;14.15;7.78;;;;;;;;;;5053251;28;20068;-75
2023/05/21 01:26:58;;;;;;;11.93;7.78;;;;;;;;;;5053420;28;20123;-75
2023/05/21 01:29:25;;;;;;;10.93;6.90;;;;;;;;;;5046840;28;20042;-75
2023/05/21 01:32:08;;;;;;;9.15;7.35;;;;;;;;;;5036320;28;20475;-75
2023/05/21 01:34:42;;;;;;;10.20;6.53;;;;;;;;;;5040002;28;20049;-75
2023/05/21 01:37:19;;;;;;;12.07;6.90;;;;;;;;;;5033917;28;20045;-75
2023/05/21 01:39:48;;;;;;;13.93;7.15;;;;;;;;;;5023787;28;20045;-76
2023/05/21 01:42:16;;;;;;;12.93;7.80;;;;;;;;;;5051906;28;20041;-75
2023/05/21 01:44:42;;;;;;;12.95;7.28;;;;;;;;;;5052175;28;20510;-75
2023/05/21 01:47:09;;;;;;;10.95;6.60;;;;;;;;;;5034745;28;20041;-75
2023/05/21 01:49:36;;;;;;;13.27;6.60;;;;;;;;;;5020907;28;20503;-75
2023/05/21 01:52:03;;;;;;;15.70;6.72;;;;;;;;;;5037606;28;20041;-75
2023/05/21 01:54:29;;;;;;;12.50;7.47;;;;;;;;;;5035825;28;20052;-75
2023/05/21 01:56:55;;;;;;;12.00;6.28;;;;;;;;;;5056970;28;20045;-75
2023/05/21 01:59:21;;;;;;;9.27;6.22;;;;;;;;;;5048304;28;20046;-75
2023/05/21 02:01:47;;;;;;;11.93;6.93;;;;;;;;;;5036642;28;20041;-75
2023/05/21 02:04:13;;;;;;;11.73;6.53;;;;;;;;;;5052728;28;20129;-75
2023/05/21 02:06:40;;;;;;;12.95;6.55;;;;;;;;;;5047046;28;20072;-75
2023/05/21 02:09:06;;;;;;;10.35;5.65;;;;;;;;;;5042698;28;20067;-75
2023/05/21 02:11:33;;;;;;;12.38;6.57;;;;;;;;;;5056645;28;20057;-75
2023/05/21 02:13:59;;;;;;;9.20;5.70;;;;;;;;;;5056563;28;20076;-75
2023/05/21 02:16:25;;;;;;;15.52;6.65;;;;;;;;;;5036450;28;20424;-75
2023/05/21 02:18:53;;;;;;;11.38;6.57;;;;;;;;;;5051972;28;20052;-75
2023/05/21 02:21:19;;;;;;;13.45;6.40;;;;;;;;;;5056381;28;20128;-75
2023/05/21 02:23:45;;;;;;;17.80;6.60;;;;;;;;;;5026151;28;20045;-75
2023/05/21 02:26:11;;;;;;;10.93;6.50;;;;;;;;;;5036845;28;20467;-75
2023/05/21 02:28:39;;;;;;;16.15;6.20;;;;;;;;;;5036307;28;20442;-76
2023/05/21 02:31:05;;;;;;;12.27;7.20;;;;;;;;;;5036329;28;20053;-75
2023/05/21 02:33:31;;;;;;;11.68;6.28;;;;;;;;;;5051228;28;20077;-75
2023/05/21 02:35:57;;;;;;;15.88;6.60;;;;;;;;;;5040674;28;20114;-75
2023/05/21 02:38:24;;;;;;;11.50;6.45;;;;;;;;;;5043455;28;20037;-75
2023/05/21 02:40:50;;;;;;;13.38;6.43;;;;;;;;;;5030914;28;20107;-75
2023/05/21 02:43:17;;;;;;;13.25;6.47;;;;;;;;;;5035661;28;20049;-75
2023/05/21 02:45:43;;;;;;;11.88;6.90;;;;;;;;;;5001898;28;20053;-75
2023/05/21 02:48:10;;;;;;;12.82;7.25;;;;;;;;;;5018305;28;20160;-75
2023/05/21 02:50:36;;;;;;;12.25;6.53;;;;;;;;;;5017935;28;20049;-75
2023/05/21 02:53:02;;;;;;;11.45;6.78;;;;;;;;;;5050396;28;20052;-75
2023/05/21 02:55:28;;;;;;;13.10;5.95;;;;;;;;;;5034354;28;20053;-75
2023/05/21 02:57:54;;;;;;;10.95;6.15;;;;;;;;;;5036104;28;20137;-75
2023/05/21 03:00:20;;;;;;;13.23;6.47;;;;;;;;;;5055698;28;20075;-75
2023/05/21 03:02:46;;;;;;;13.40;6.10;;;;;;;;;;5048015;28;20036;-75
2023/05/21 03:05:12;;;;;;;14.23;6.57;;;;;;;;;;5054284;28;20045;-75
2023/05/21 03:07:38;;;;;;;12.05;6.43;;;;;;;;;;5054217;28;20037;-75
2023/05/21 03:10:05;;;;;;;14.15;6.18;;;;;;;;;;5024599;28;20048;-75
2023/05/21 03:12:31;;;;;;;11.55;6.68;;;;;;;;;;5036624;28;20053;-75
2023/05/21 03:14:58;;;;;;;10.90;6.13;;;;;;;;;;5037300;28;20467;-75
2023/05/21 03:17:24;;;;;;;11.85;6.03;;;;;;;;;;5037860;28;20170;-75
2023/05/21 03:19:50;;;;;;;13.73;6.85;;;;;;;;;;5055893;28;20507;-75
2023/05/21 03:22:18;;;;;;;12.77;6.40;;;;;;;;;;5056099;28;20151;-75
2023/05/21 03:24:45;;;;;;;12.10;6.50;;;;;;;;;;5053466;28;20045;-74
2023/05/21 03:27:11;;;;;;;10.98;6.28;;;;;;;;;;5038220;28;20056;-74
2023/05/21 03:29:38;;;;;;;14.32;6.65;;;;;;;;;;5036392;28;20048;-74
2023/05/21 03:32:05;;;;;;;9.82;6.32;;;;;;;;;;5018002;28;20451;-75
2023/05/21 03:34:33;;;;;;;13.38;6.32;;;;;;;;;;5044005;28;20053;-75
2023/05/21 03:36:59;;;;;;;17.35;6.32;;;;;;;;;;5046813;28;20040;-75
2023/05/21 03:39:25;;;;;;;11.50;6.43;;;;;;;;;;5055413;28;20051;-75
2023/05/21 03:41:51;;;;;;;14.02;6.82;;;;;;;;;;5054853;28;20033;-75
2023/05/21 03:44:17;;;;;;;12.48;6.20;;;;;;;;;;5055413;28;20077;-75
2023/05/21 03:46:44;;;;;;;10.48;5.63;;;;;;;;;;5054829;28;20079;-75
2023/05/21 03:49:10;;;;;;;15.32;6.80;;;;;;;;;;5054105;28;20059;-75
2023/05/21 03:51:37;;;;;;;14.30;5.75;;;;;;;;;;5054802;28;20179;-75
2023/05/21 03:54:03;;;;;;;10.18;5.50;;;;;;;;;;5055057;28;20549;-75
2023/05/21 03:56:29;;;;;;;11.13;5.57;;;;;;;;;;5053230;28;20041;-75
2023/05/21 03:58:55;;;;;;;15.75;6.30;;;;;;;;;;5037022;28;20106;-75
2023/05/21 04:01:21;;;;;;;12.45;5.55;;;;;;;;;;5054581;28;20041;-75
2023/05/21 04:03:47;;;;;;;13.23;6.38;;;;;;;;;;5045709;28;20476;-75
2023/05/21 04:06:14;;;;;;;12.88;5.97;;;;;;;;;;5052746;28;20533;-75
2023/05/21 04:08:41;;;;;;;9.75;6.15;;;;;;;;;;5054349;28;20045;-75
2023/05/21 04:11:07;;;;;;;13.52;5.80;;;;;;;;;;5053571;28;20060;-75
2023/05/21 04:13:33;;;;;;;9.98;5.40;;;;;;;;;;5054625;28;20076;-75
2023/05/21 04:15:59;;;;;;;9.00;5.10;;;;;;;;;;5019710;28;20396;-75
2023/05/21 04:18:26;;;;;;;8.13;5.28;;;;;;;;;;5031469;28;20409;-75
2023/05/21 04:20:52;;;;;;;15.73;5.80;;;;;;;;;;5032826;28;20037;-75
2023/05/21 04:23:18;;;;;;;8.02;5.45;;;;;;;;;;5021865;28;20046;-75
2023/05/21 04:25:49;;;;;;;12.43;5.30;;;;;;;;;;5034337;28;20512;-75
2023/05/21 04:28:18;;;;;;;15.15;5.57;;;;;;;;;;5016635;28;20049;-75
2023/05/21 04:30:44;;;;;;;12.43;5.40;;;;;;;;;;5033874;28;20052;-75
2023/05/21 04:33:10;;;;;;;13.85;5.85;;;;;;;;;;5043145;28;20056;-75
2023/05/21 04:35:43;;;;;;;13.50;5.63;;;;;;;;;;5037972;28;20041;-75
2023/05/21 04:38:09;;;;;;;9.40;5.60;;;;;;;;;;5034252;28;20052;-75
2023/05/21 04:40:35;;;;;;;13.77;5.60;;;;;;;;;;5034220;28;20045;-75
2023/05/21 04:43:01;;;;;;;12.07;5.40;;;;;;;;;;5033880;28;20068;-75
2023/05/21 04:45:28;;;;;;;11.65;5.75;;;;;;;;;;5034055;28;20491;-75
2023/05/21 04:47:59;;;;;;;10.32;6.00;;;;;;;;;;5033722;28;20602;-75
2023/05/21 04:50:25;;;;;;;11.75;6.45;;;;;;;;;;5034804;28;20046;-75
2023/05/21 04:52:53;;;;;;;12.25;6.15;;;;;;;;;;5035497;28;20078;-75
2023/05/21 04:55:20;;;;;;;14.02;5.93;;;;;;;;;;5053669;28;20127;-75
2023/05/21 04:57:46;;;;;;;8.13;5.40;;;;;;;;;;5053491;28;20398;-75
2023/05/21 05:00:12;;;;;;;15.48;6.47;;;;;;;;;;5053687;28;20044;-75
2023/05/21 05:02:38;;;;;;;12.30;6.00;;;;;;;;;;5034493;28;20124;-75
2023/05/21 05:05:04;;;;;;;13.48;4.90;;;;;;;;;;5050777;28;20045;-75
2023/05/21 05:07:31;;;;;;;16.33;5.55;;;;;;;;;;5037926;28;20076;-75
2023/05/21 05:09:57;;;;;;;13.57;5.35;;;;;;;;;;5034206;28;20661;-75
2023/05/21 05:12:23;;;;;;;10.07;5.28;;;;;;;;;;5033181;28;20096;-75
2023/05/21 05:14:49;;;;;;;11.93;5.53;;;;;;;;;;5033548;28;20050;-75
2023/05/21 05:17:15;;;;;;;12.55;5.40;;;;;;;;;;5033038;28;20361;-75
2023/05/21 05:19:41;;;;;;;10.90;5.32;;;;;;;;;;5032378;28;20053;-75
2023/05/21 05:22:07;;;;;;;10.13;5.68;;;;;;;;;;5048940;28;20110;-75
2023/05/21 05:24:33;;;;;;;10.82;5.22;;;;;;;;;;5033299;28;20049;-76
2023/05/21 05:26:59;;;;;;;8.40;5.57;;;;;;;;;;5046998;28;20087;-75
2023/05/21 05:29:25;;;;;;;11.10;5.53;;;;;;;;;;5053204;28;20056;-75
2023/05/21 05:31:51;;;;;;;9.88;5.13;;;;;;;;;;5052906;28;20064;-75
2023/05/21 05:34:18;;;;;;;13.80;5.72;;;;;;;;;;5043031;28;20452;-75
2023/05/21 05:36:44;;;;;;;11.50;5.50;;;;;;;;;;5052969;28;20044;-75
2023/05/21 05:39:10;;;;;;;11.15;5.25;;;;;;;;;;5031954;28;20045;-75
2023/05/21 05:41:36;;;;;;;14.45;5.20;;;;;;;;;;5045332;28;20045;-75
2023/05/21 05:44:02;;;;;;;11.52;5.72;;;;;;;;;;5018718;28;20534;-75
2023/05/21 05:46:28;;;;;;;12.90;5.28;;;;;;;;;;5060967;28;20070;-75
2023/05/21 05:48:54;;;;;;;9.00;5.00;;;;;;;;;;5054986;28;20040;-75
2023/05/21 05:51:20;;;;;;;8.50;5.20;;;;;;;;;;5067755;28;20123;-75
2023/05/21 05:53:47;;;;;;;11.95;5.00;;;;;;;;;;5040968;28;20084;-75
2023/05/21 05:56:13;;;;;;;7.65;5.22;;;;;;;;;;5033429;28;20125;-75
2023/05/21 05:58:39;;;;;;;10.90;4.63;;;;;;;;;;5033651;28;20041;-75
2023/05/21 06:01:05;;;;;;;15.10;5.60;;;;;;;;;;5033282;28;20045;-75
2023/05/21 06:03:31;;;;;;;10.45;5.30;;;;;;;;;;5047648;28;20087;-75
2023/05/21 06:05:57;;;;;;;11.80;5.63;;;;;;;;;;5051750;28;20069;-75
2023/05/21 06:08:23;;;;;;;9.00;4.90;;;;;;;;;;5033289;28;20049;-75
2023/05/21 06:10:49;;;;;;;9.18;5.00;;;;;;;;;;5048068;28;20091;-75
2023/05/21 06:13:16;;;;;;;8.05;4.30;;;;;;;;;;5032168;28;20484;-75
2023/05/21 06:15:42;;;;;;;12.38;5.18;;;;;;;;;;5033136;28;20519;-75
2023/05/21 06:18:08;;;;;;;12.05;4.50;;;;;;;;;;5049494;28;20049;-75
2023/05/21 06:20:35;;;;;;;9.43;4.55;;;;;;;;;;5044159;28;20099;-75
2023/05/21 06:23:02;;;;;;;8.68;4.80;;;;;;;;;;5041941;28;20135;-75
2023/05/21 06:25:28;;;;;;;11.80;4.80;;;;;;;;;;5034094;28;20041;-75
2023/05/21 06:27:55;;;;;;;10.40;4.80;;;;;;;;;;5052881;28;20041;-75
2023/05/21 06:30:21;;;;;;;8.70;4.43;;;;;;;;;;5046978;28;20121;-78
2023/05/21 06:32:47;;;;;;;9.40;4.78;;;;;;;;;;5050542;28;20033;-75
2023/05/21 06:35:13;;;;;;;14.60;4.22;;;;;;;;;;5031948;28;20045;-75
2023/05/21 06:37:39;;;;;;;9.73;4.65;;;;;;;;;;5037817;28;20033;-75
2023/05/21 06:40:06;;;;;;;10.57;4.85;;;;;;;;;;5043534;28;20443;-75
2023/05/21 06:42:32;;;;;;;8.48;4.50;;;;;;;;;;5013013;28;20045;-76
2023/05/21 06:44:58;;;;;;;7.60;4.50;;;;;;;;;;5048038;28;20072;-75
2023/05/21 06:47:24;;;;;;;7.32;4.22;;;;;;;;;;5039902;28;20048;-75
2023/05/21 06:49:50;;;;;;;19.77;5.43;;;;;;;;;;5040184;28;20081;-76
2023/05/21 06:52:16;;;;;;;7.95;4.45;;;;;;;;;;5049450;28;20484;-75
2023/05/21 06:54:42;;;;;;;7.05;4.28;;;;;;;;;;5051362;28;20075;-76
2023/05/21 06:57:08;;;;;;;9.57;4.28;;;;;;;;;;5055303;28;20076;-76
2023/05/21 06:59:34;;;;;;;5.65;4.10;;;;;;;;;;5047296;28;20494;-76
2023/05/21 07:02:00;;;;;;;8.88;4.40;;;;;;;;;;5040992;28;20126;-76
2023/05/21 07:04:26;;;;;;;9.93;4.35;;;;;;;;;;5037688;28;20042;-75
2023/05/21 07:06:53;;;;;;;8.15;4.50;;;;;;;;;;5038785;28;20072;-76
2023/05/21 07:09:19;;;;;;;10.45;4.40;;;;;;;;;;5046910;28;20048;-77
2023/05/21 07:11:45;;;;;;;8.73;4.55;;;;;;;;;;5031884;28;20052;-76
2023/05/21 07:14:11;;;;;;;6.32;3.97;;;;;;;;;;5046057;28;20052;-76
2023/05/21 07:16:38;;;;;;;5.25;3.85;;;;;;;;;;5044955;28;20107;-76
2023/05/21 07:19:04;;;;;;;11.68;4.13;;;;;;;;;;5054602;28;20056;-76
2023/05/21 07:21:30;;;;;;;6.15;4.20;;;;;;;;;;5055312;28;20192;-76
2023/05/21 07:23:56;;;;;;;7.97;4.63;;;;;;;;;;5055295;28;20142;-76
2023/05/21 07:26:22;;;;;;;7.28;4.55;;;;;;;;;;5052957;28;20067;-76
2023/05/21 07:28:48;;;;;;;6.72;3.83;;;;;;;;;;5047101;28;20049;-77
2023/05/21 07:31:14;;;;;;;6.68;4.25;;;;;;;;;;5046939;28;20033;-77
2023/05/21 07:33:40;;;;;;;9.88;4.32;;;;;;;;;;5042332;28;20573;-77
2023/05/21 07:36:07;;;;;;;9.25;4.40;;;;;;;;;;5046395;28;20130;-77
2023/05/21 07:38:33;;;;;;;8.60;4.55;;;;;;;;;;5039246;28;20034;-77
2023/05/21 07:40:59;;;;;;;7.75;3.80;;;;;;;;;;5033180;28;20109;-77
2023/05/21 07:43:25;;;;;;;7.47;3.92;;;;;;;;;;5035727;28;20043;-79
2023/05/21 07:45:51;;;;;;;6.80;3.80;;;;;;;;;;5013576;28;20045;-77
2023/05/21 07:48:18;;;;;;;8.90;3.95;;;;;;;;;;5028271;28;20044;-77
2023/05/21 07:50:46;;;;;;;9.60;3.83;;;;;;;;;;5036075;28;20526;-77
2023/05/21 07:53:12;;;;;;;11.15;3.85;;;;;;;;;;5047143;28;20368;-77
2023/05/21 07:55:46;;;;;;;8.73;3.85;;;;;;;;;;5035726;28;20392;-77
2023/05/21 07:58:12;;;;;;;7.88;4.00;;;;;;;;;;5040244;28;20075;-77
2023/05/21 08:00:43;;;;;;;8.10;4.00;;;;;;;;;;5036274;28;20535;-77
2023/05/21 08:03:10;;;;;;;6.88;4.05;;;;;;;;;;5039788;28;20050;-77
2023/05/21 08:05:36;;;;;;;6.38;3.92;;;;;;;;;;5039142;28;20107;-77
2023/05/21 08:08:04;;;;;;;9.60;3.90;;;;;;;;;;5037726;28;20045;-77
2023/05/21 08:10:30;;;;;;;9.10;4.22;;;;;;;;;;5040114;28;20525;-77
2023/05/21 08:12:56;;;;;;;8.57;3.70;;;;;;;;;;5035968;28;20041;-77
2023/05/21 08:15:22;;;;;;;8.57;4.70;;;;;;;;;;5022869;28;20442;-77
2023/05/21 08:17:48;;;;;;;8.52;4.15;;;;;;;;;;5044519;28;20051;-77
2023/05/21 08:20:15;;;;;;;9.95;4.18;;;;;;;;;;5039538;28;20037;-77
2023/05/21 08:22:42;;;;;;;7.43;3.92;;;;;;;;;;5046361;28;20048;-77
2023/05/21 08:25:08;;;;;;;10.15;3.90;;;;;;;;;;5053891;28;20060;-77
2023/05/21 08:27:34;;;;;;;7.30;3.53;;;;;;;;;;5042001;28;20134;-77
2023/05/21 08:30:00;;;;;;;5.40;3.80;;;;;;;;;;5040375;28;20411;-77
2023/05/21 08:32:26;;;;;;;7.43;3.78;;;;;;;;;;5041053;28;20041;-77
2023/05/21 08:34:52;;;;;;;7.15;3.85;;;;;;;;;;5041743;28;20178;-77
2023/05/21 08:37:20;;;;;;;7.43;3.80;;;;;;;;;;5039358;28;20037;-77
2023/05/21 08:39:46;;;;;;;7.18;3.38;;;;;;;;;;5039078;28;20056;-77
2023/05/21 08:42:24;;;;;;;8.82;4.07;;;;;;;;;;5042735;28;20058;-77
2023/05/21 08:44:51;;;;;;;5.55;3.90;;;;;;;;;;5040309;28;20045;-77
2023/05/21 08:47:22;;;;;;;6.88;3.85;;;;;;;;;;5033488;28;20480;-77
2023/05/21 08:49:49;;;;;;;6.88;3.85;;;;;;;;;;5017994;28;20045;-76
2023/05/21 08:52:15;;;;;;;7.18;4.07;;;;;;;;;;5025384;28;20071;-77
2023/05/21 08:54:42;;;;;;;7.97;3.75;;;;;;;;;;5039403;28;20045;-77
2023/05/21 08:57:09;;;;;;;7.10;3.90;;;;;;;;;;5047705;28;20535;-77
2023/05/21 08:59:36;;;;;;;11.10;4.00;;;;;;;;;;5016237;28;20376;-77
2023/05/21 09:02:03;;;;;;;7.82;4.03;;;;;;;;;;5034907;28;20049;-76
2023/05/21 09:04:30;;;;;;;7.85;4.13;;;;;;;;;;5038336;28;20200;-76
2023/05/21 09:06:58;;;;;;;7.35;4.35;;;;;;;;;;5052190;28;20040;-76
2023/05/21 09:09:34;;;;;;;7.25;3.50;;;;;;;;;;5025598;28;20395;-76
2023/05/21 09:12:00;;;;;;;7.05;3.70;;;;;;;;;;5023948;28;20091;-77
2023/05/21 09:14:26;;;;;;;7.53;3.55;;;;;;;;;;5034227;28;20045;-77
2023/05/21 09:16:52;;;;;;;8.05;3.85;;;;;;;;;;5026441;28;20126;-77
2023/05/21 09:19:21;;;;;;;9.50;4.00;;;;;;;;;;5012540;28;20049;-77
2023/05/21 09:21:50;;;;;;;6.88;4.10;;;;;;;;;;5038325;28;20033;-77
2023/05/21 09:24:16;;;;;;;7.15;3.78;;;;;;;;;;5042339;28;20550;-77
2023/05/21 09:26:43;;;;;;;7.88;3.70;;;;;;;;;;5025484;28;20399;-77
2023/05/21 09:29:09;;;;;;;6.70;3.67;;;;;;;;;;5043439;28;20033;-77
2023/05/21 09:31:35;;;;;;;9.60;3.85;;;;;;;;;;5030328;28;20514;-77
2023/05/21 09:34:01;;;;;;;7.72;3.50;;;;;;;;;;5045084;28;20051;-76
2023/05/21 09:36:28;;;;;;;7.40;3.60;;;;;;;;;;5014557;28;20075;-77
2023/05/21 09:38:54;;;;;;;8.30;3.92;;;;;;;;;;5044633;28;20426;-77
2023/05/21 09:41:30;;;;;;;5.15;3.38;;;;;;;;;;5027043;28;20038;-77
2023/05/21 09:43:56;;;;;;;;;;;;;;;;;;5041196;28;20067;-77
2023/05/21 09:46:26;;;;;;;7.15;3.53;;;;;;;;;;5038953;28;19921;-77
2023/05/21 09:48:52;;;;;;;6.70;3.50;;;;;;;;;;5033522;28;20032;-76
2023/05/21 09:51:18;;;;;;;6.28;3.30;;;;;;;;;;5034164;28;20049;-77
2023/05/21 09:53:44;;;;;;;6.53;3.70;;;;;;;;;;5052545;28;20048;-77
2023/05/21 09:56:11;;;;;;;8.43;4.22;;;;;;;;;;5014707;28;20105;-76
2023/05/21 09:58:38;;;;;;;6.75;3.97;;;;;;;;;;5019492;28;20507;-77
2023/05/21 10:01:04;;;;;;;11.00;3.88;;;;;;;;;;5029522;28;20057;-76
2023/05/21 10:03:31;;;;;;;8.63;3.78;;;;;;;;;;5010817;28;20037;-76
2023/05/21 10:05:58;;;;;;;5.65;3.45;;;;;;;;;;5024604;28;20051;-76
2023/05/21 10:08:26;;;;;;;6.60;3.17;;;;;;;;;;5055881;28;20440;-77
2023/05/21 10:10:52;;;;;;;9.98;4.20;;;;;;;;;;5043309;28;20045;-77
2023/05/21 10:13:20;;;;;;;8.68;4.28;;;;;;;;;;5058350;28;20415;-77
2023/05/21 10:15:49;;;;;;;6.38;3.92;;;;;;;;;;5035243;28;20037;-77
2023/05/21 10:18:17;;;;;;;7.90;3.95;;;;;;;;;;5048638;28;20487;-77
2023/05/21 10:20:43;;;;;;;9.05;3.95;;;;;;;;;;5026701;28;20045;-77
2023/05/21 10:23:09;;;;;;;6.82;3.58;;;;;;;;;;5038728;28;20159;-77
2023/05/21 10:25:36;;;;;;;6.22;4.25;;;;;;;;;;5020788;28;20053;-77
2023/05/21 10:28:02;;;;;;;6.43;3.80;;;;;;;;;;5038218;28;20145;-77
2023/05/21 10:30:29;;;;;;;5.88;4.10;;;;;;;;;;5051908;28;20049;-77
2023/05/21 10:32:55;;;;;;;7.93;3.75;;;;;;;;;;5046806;28;20067;-77
2023/05/21 10:35:22;;;;;;;8.48;4.15;;;;;;;;;;5025977;28;20056;-77
2023/05/21 10:37:48;;;;;;;8.02;4.18;;;;;;;;;;5036385;28;20084;-77
2023/05/21 10:40:15;;;;;;;8.50;3.90;;;;;;;;;;5035933;28;20042;-77
2023/05/21 10:42:59;;;;;;;11.60;4.22;;;;;;;;;;5034302;28;20060;-77
2023/05/21 10:45:48;;;;;;;7.43;4.13;;;;;;;;;;5056539;28;20037;-76
2023/05/21 10:48:32;;;;;;;8.02;4.00;;;;;;;;;;5073220;28;20041;-77
2023/05/21 10:51:17;;;;;;;10.77;4.20;;;;;;;;;;5040998;28;20475;-77
2023/05/21 10:53:53;;;;;;;8.70;4.50;;;;;;;;;;5050865;28;20037;-77
2023/05/21 10:56:24;;;;;;;6.90;4.25;;;;;;;;;;5032181;28;20545;-80
2023/05/21 10:58:58;;;;;;;7.45;4.28;;;;;;;;;;5047023;28;20041;-76
2023/05/21 11:01:32;;;;;;;7.35;4.20;;;;;;;;;;5057239;28;20127;-76
2023/05/21 11:03:58;;;;;;;10.82;4.43;;;;;;;;;;5036497;28;20487;-80
2023/05/21 11:06:25;;;;;;;8.90;4.30;;;;;;;;;;5054319;28;20048;-76
2023/05/21 11:08:54;;;;;;;10.90;4.25;;;;;;;;;;5021479;28;20084;-76
2023/05/21 11:11:42;;;;;;;7.80;4.68;;;;;;;;;;5056915;28;20095;-79
2023/05/21 11:14:27;;;;;;;7.75;4.75;;;;;;;;;;5037274;28;20447;-78
2023/05/21 11:16:53;;;;;;;8.65;4.53;;;;;;;;;;5033982;28;20049;-81
2023/05/21 11:19:19;;;;;;;8.82;5.10;;;;;;;;;;5018259;28;20115;-77
2023/05/21 11:21:51;;;;;;;9.93;5.00;;;;;;;;;;5056729;28;20065;-77
2023/05/21 11:24:18;;;;;;;8.13;4.60;;;;;;;;;;5057281;28;20068;-79
2023/05/21 11:26:47;;;;;;;8.02;4.38;;;;;;;;;;5049965;28;20112;-77
2023/05/21 11:29:14;;;;;;;9.93;4.82;;;;;;;;;;5040753;28;20041;-77
2023/05/21 11:31:47;;;;;;;10.90;4.70;;;;;;;;;;5047248;28;20100;-77
2023/05/21 11:34:21;;;;;;;7.85;4.50;;;;;;;;;;5017579;28;20472;-76
2023/05/21 11:36:48;;;;;;;8.20;4.43;;;;;;;;;;5037329;28;20490;-77
2023/05/21 11:39:16;;;;;;;6.95;4.53;;;;;;;;;;5025024;28;20053;-76
2023/05/21 11:41:52;;;;;;;10.38;4.70;;;;;;;;;;5047604;28;20053;-76
2023/05/21 11:44:18;;;;;;;12.07;4.80;;;;;;;;;;5041412;28;20056;-76
2023/05/21 11:46:45;;;;;;;8.52;4.53;;;;;;;;;;5033434;28;20052;-76
2023/05/21 11:49:11;;;;;;;10.85;4.55;;;;;;;;;;5036860;28;20079;-76
2023/05/21 11:51:39;;;;;;;8.38;4.75;;;;;;;;;;5054697;28;20052;-77
2023/05/21 11:54:07;;;;;;;8.90;4.55;;;;;;;;;;5035332;28;20045;-76
2023/05/21 11:56:35;;;;;;;7.78;4.38;;;;;;;;;;5051287;28;20110;-76
2023/05/21 11:59:02;;;;;;;10.48;4.90;;;;;;;;;;5036902;28;20079;-76
2023/05/21 12:01:29;;;;;;;9.32;4.35;;;;;;;;;;5035264;28;20049;-76
2023/05/21 12:03:55;;;;;;;8.05;4.30;;;;;;;;;;5048088;28;20045;-76
2023/05/21 12:06:25;;;;;;;10.45;4.72;;;;;;;;;;5039539;28;20055;-76
2023/05/21 12:08:56;;;;;;;6.55;4.03;;;;;;;;;;5028815;28;20045;-76
2023/05/21 12:11:23;;;;;;;6.68;4.95;;;;;;;;;;5040456;28;20388;-76
2023/05/21 12:13:49;;;;;;;8.52;4.70;;;;;;;;;;5037110;28;20053;-76
2023/05/21 12:16:15;;;;;;;8.50;4.90;;;;;;;;;;5048405;28;20099;-76
2023/05/21 12:18:41;;;;;;;9.93;5.18;;;;;;;;;;5043896;28;20458;-76
2023/05/21 12:21:08;;;;;;;9.27;4.90;;;;;;;;;;5053833;28;20491;-76
2023/05/21 12:23:34;;;;;;;7.03;5.20;;;;;;;;;;5039308;28;20168;-76
2023/05/21 12:26:00;;;;;;;9.88;5.18;;;;;;;;;;5053608;28;20499;-76
2023/05/21 12:28:26;;;;;;;7.05;5.50;;;;;;;;;;5040301;28;20050;-76
2023/05/21 12:30:52;;;;;;;8.25;5.30;;;;;;;;;;5034183;28;20103;-76
2023/05/21 12:33:18;;;;;;;9.05;4.97;;;;;;;;;;5041125;28;20041;-76
2023/05/21 12:35:48;;;;;;;8.27;4.90;;;;;;;;;;5037937;28;20049;-76
2023/05/21 12:38:15;;;;;;;9.93;5.32;;;;;;;;;;5044607;28;20068;-76
2023/05/21 12:40:43;;;;;;;9.07;5.63;;;;;;;;;;5050067;28;20096;-76
2023/05/21 12:43:09;;;;;;;12.73;5.95;;;;;;;;;;5052360;28;20052;-76
2023/05/21 12:45:38;;;;;;;10.45;6.13;;;;;;;;;;5051912;28;20336;-76
2023/05/21 12:48:04;;;;;;;10.35;6.65;;;;;;;;;;5053084;28;20041;-76
2023/05/21 12:50:30;;;;;;;11.02;6.60;;;;;;;;;;5040287;28;20077;-77
2023/05/21 12:52:56;;;;;;;11.48;5.80;;;;;;;;;;5041200;28;20128;-76
2023/05/21 12:55:24;;;;;;;11.68;6.35;;;;;;;;;;5038089;28;20041;-76
2023/05/21 12:57:50;;;;;;;9.10;6.18;;;;;;;;;;5029642;28;20503;-76
2023/05/21 13:00:22;;;;;;;9.30;6.28;;;;;;;;;;5045228;28;20096;-81
2023/05/21 13:02:48;;;;;;;10.65;7.47;;;;;;;;;;5052075;28;20045;-76
2023/05/21 13:05:18;;;;;;;12.65;7.80;;;;;;;;;;5029767;28;20094;-76
2023/05/21 13:07:49;;;;;;;11.23;6.90;;;;;;;;;;5037002;28;20033;-76
2023/05/21 13:10:15;;;;;;;12.43;7.97;;;;;;;;;;5037687;28;20046;-77
2023/05/21 13:12:41;;;;;;;13.80;8.18;;;;;;;;;;5043802;28;20126;-76
2023/05/21 13:15:08;;;;;;;11.43;7.70;;;;;;;;;;5042909;28;20210;-76
2023/05/21 13:17:34;;;;;;;10.98;7.57;;;;;;;;;;5046980;28;20041;-76
2023/05/21 13:20:07;;;;;;;13.52;7.72;;;;;;;;;;5028301;28;20076;-77
2023/05/21 13:22:34;;;;;;;10.52;7.68;;;;;;;;;;5042347;28;20128;-77
2023/05/21 13:25:00;;;;;;;13.23;7.32;;;;;;;;;;5050552;28;20182;-77
2023/05/21 13:27:27;;;;;;;11.95;8.30;;;;;;;;;;5050931;28;20045;-76
2023/05/21 13:29:53;;;;;;;14.77;8.80;;;;;;;;;;5033796;28;20045;-76
2023/05/21 13:32:19;;;;;;;16.95;9.55;;;;;;;;;;5034196;28;20591;-76
2023/05/21 13:34:46;;;;;;;17.48;9.55;;;;;;;;;;5037196;28;20048;-76
2023/05/21 13:37:12;;;;;;;18.02;10.45;;;;;;;;;;5037037;28;20057;-76
2023/05/21 13:39:39;;;;;;;14.90;9.70;;;;;;;;;;5036196;28;20504;-76
2023/05/21 13:42:05;;;;;;;15.35;9.57;;;;;;;;;;5033497;28;20065;-76
2023/05/21 13:44:34;;;;;;;12.98;9.25;;;;;;;;;;5034986;28;20045;-76
2023/05/21 13:47:03;;;;;;;13.32;10.23;;;;;;;;;;5045233;28;20120;-76
2023/05/21 13:49:30;;;;;;;13.73;9.55;;;;;;;;;;5035941;28;20145;-77
2023/05/21 13:51:57;;;;;;;12.57;9.75;;;;;;;;;;5035735;28;20064;-77
2023/05/21 13:54:23;;;;;;;15.05;9.02;;;;;;;;;;5037662;28;20060;-76
2023/05/21 13:56:49;;;;;;;14.25;9.73;;;;;;;;;;5035660;28;20444;-77
2023/05/21 13:59:15;;;;;;;13.18;9.05;;;;;;;;;;5043285;28;20045;-77
2023/05/21 14:01:44;;;;;;;11.02;8.55;;;;;;;;;;5052693;28;20041;-77
2023/05/21 14:04:10;;;;;;;13.25;9.30;;;;;;;;;;5050541;28;20052;-77
2023/05/21 14:06:36;;;;;;;13.10;8.60;;;;;;;;;;5050518;28;20041;-77
2023/05/21 14:09:03;;;;;;;11.52;8.50;;;;;;;;;;5037339;28;20056;-76
2023/05/21 14:11:30;;;;;;;14.45;8.85;;;;;;;;;;5052349;28;20048;-77
2023/05/21 14:13:57;;;;;;;11.38;8.60;;;;;;;;;;5034251;28;20052;-76
2023/05/21 14:16:26;;;;;;;11.77;8.82;;;;;;;;;;5052446;28;20053;-77
2023/05/21 14:18:52;;;;;;;12.73;8.05;;;;;;;;;;5053375;28;20076;-77
2023/05/21 14:21:18;;;;;;;13.15;9.68;;;;;;;;;;5051966;28;20965;-76
2023/05/21 14:23:44;;;;;;;17.00;9.40;;;;;;;;;;5036751;28;20077;-77
2023/05/21 14:26:10;;;;;;;13.32;8.63;;;;;;;;;;5046687;28;20049;-77
2023/05/21 14:28:36;;;;;;;13.82;8.50;;;;;;;;;;5032310;28;20069;-76
2023/05/21 14:31:02;;;;;;;12.75;8.82;;;;;;;;;;5035363;28;20045;-76
2023/05/21 14:33:30;;;;;;;13.55;9.30;;;;;;;;;;5039270;28;20044;-76
2023/05/21 14:35:56;;;;;;;15.13;10.32;;;;;;;;;;5049048;28;20045;-76